sensor_id;sensor_type;location;lat;lon;timestamp;temperature;humidity
24217;DHT22;12356;49.386;8.688;2023-08-06T00:00:10;17.80;49.20
24217;DHT22;12356;49.386;8.688;2023-08-06T00:02:40;17.80;49.90
24217;DHT22;12356;49.386;8.688;2023-08-06T00:05:11;17.80;50.10
24217;DHT22;12356;49.386;8.688;2023-08-06T00:07:42;17.80;50.20
24217;DHT22;12356;49.386;8.688;2023-08-06T00:10:12;17.80;49.70
24217;DHT22;12356;49.386;8.688;2023-08-06T00:12:43;17.80;49.20
24217;DHT22;12356;49.386;8.688;2023-08-06T00:15:14;17.80;49.10
24217;DHT22;12356;49.386;8.688;2023-08-06T00:17:45;17.80;48.30
24217;DHT22;12356;49.386;8.688;2023-08-06T00:20:15;17.80;48.10
24217;DHT22;12356;49.386;8.688;2023-08-06T00:22:46;17.80;48.20
24217;DHT22;12356;49.386;8.688;2023-08-06T00:25:16;17.80;46.90
24217;DHT22;12356;49.386;8.688;2023-08-06T00:27:47;17.80;46.90
24217;DHT22;12356;49.386;8.688;2023-08-06T00:30:17;17.90;46.10
24217;DHT22;12356;49.386;8.688;2023-08-06T00:32:48;17.90;46.10
24217;DHT22;12356;49.386;8.688;2023-08-06T00:35:19;17.90;45.20
24217;DHT22;12356;49.386;8.688;2023-08-06T00:37:49;17.90;45.00
24217;DHT22;12356;49.386;8.688;2023-08-06T00:40:20;17.90;44.70
24217;DHT22;12356;49.386;8.688;2023-08-06T00:42:52;17.90;44.90
24217;DHT22;12356;49.386;8.688;2023-08-06T00:45:22;17.90;44.00
24217;DHT22;12356;49.386;8.688;2023-08-06T00:47:53;17.90;42.60
24217;DHT22;12356;49.386;8.688;2023-08-06T00:50:24;17.90;43.10
24217;DHT22;12356;49.386;8.688;2023-08-06T00:52:54;18.00;41.40
24217;DHT22;12356;49.386;8.688;2023-08-06T00:55:25;18.00;41.40
24217;DHT22;12356;49.386;8.688;2023-08-06T00:57:56;18.00;40.60
24217;DHT22;12356;49.386;8.688;2023-08-06T01:00:27;18.00;41.50
24217;DHT22;12356;49.386;8.688;2023-08-06T01:02:57;18.00;40.90
24217;DHT22;12356;49.386;8.688;2023-08-06T01:05:28;18.00;41.20
24217;DHT22;12356;49.386;8.688;2023-08-06T01:08:15;18.10;40.60
24217;DHT22;12356;49.386;8.688;2023-08-06T01:13:44;18.10;39.60
24217;DHT22;12356;49.386;8.688;2023-08-06T01:16:18;18.00;38.60
24217;DHT22;12356;49.386;8.688;2023-08-06T01:18:49;18.10;37.70
24217;DHT22;12356;49.386;8.688;2023-08-06T01:21:20;18.00;37.00
24217;DHT22;12356;49.386;8.688;2023-08-06T01:23:50;18.00;37.90
24217;DHT22;12356;49.386;8.688;2023-08-06T01:26:31;18.00;38.20
24217;DHT22;12356;49.386;8.688;2023-08-06T01:29:30;18.00;37.80
24217;DHT22;12356;49.386;8.688;2023-08-06T01:31:59;18.10;38.50
24217;DHT22;12356;49.386;8.688;2023-08-06T01:34:32;18.00;37.90
24217;DHT22;12356;49.386;8.688;2023-08-06T01:37:04;18.00;37.40
24217;DHT22;12356;49.386;8.688;2023-08-06T01:39:35;18.00;36.70
24217;DHT22;12356;49.386;8.688;2023-08-06T01:42:06;18.00;35.80
24217;DHT22;12356;49.386;8.688;2023-08-06T01:44:37;18.00;35.30
24217;DHT22;12356;49.386;8.688;2023-08-06T01:47:08;18.00;34.70
24217;DHT22;12356;49.386;8.688;2023-08-06T01:49:39;18.00;35.60
24217;DHT22;12356;49.386;8.688;2023-08-06T01:52:09;18.00;34.20
24217;DHT22;12356;49.386;8.688;2023-08-06T01:54:40;18.00;33.70
24217;DHT22;12356;49.386;8.688;2023-08-06T01:57:10;18.00;33.60
24217;DHT22;12356;49.386;8.688;2023-08-06T01:59:41;18.00;33.80
24217;DHT22;12356;49.386;8.688;2023-08-06T02:02:12;18.00;34.20
24217;DHT22;12356;49.386;8.688;2023-08-06T02:04:42;17.90;34.20
24217;DHT22;12356;49.386;8.688;2023-08-06T02:07:13;17.90;33.90
24217;DHT22;12356;49.386;8.688;2023-08-06T02:09:43;17.90;33.50
24217;DHT22;12356;49.386;8.688;2023-08-06T02:12:14;17.90;34.20
24217;DHT22;12356;49.386;8.688;2023-08-06T02:14:44;17.90;33.60
24217;DHT22;12356;49.386;8.688;2023-08-06T02:17:15;17.90;33.40
24217;DHT22;12356;49.386;8.688;2023-08-06T02:19:45;17.90;33.10
24217;DHT22;12356;49.386;8.688;2023-08-06T02:22:16;17.90;33.40
24217;DHT22;12356;49.386;8.688;2023-08-06T02:24:49;17.90;33.40
24217;DHT22;12356;49.386;8.688;2023-08-06T02:27:19;17.90;34.10
24217;DHT22;12356;49.386;8.688;2023-08-06T02:29:50;17.90;33.70
24217;DHT22;12356;49.386;8.688;2023-08-06T02:32:20;17.90;33.40
24217;DHT22;12356;49.386;8.688;2023-08-06T02:34:51;17.90;32.70
24217;DHT22;12356;49.386;8.688;2023-08-06T02:37:22;17.90;30.80
24217;DHT22;12356;49.386;8.688;2023-08-06T02:39:52;17.90;30.80
24217;DHT22;12356;49.386;8.688;2023-08-06T02:42:23;17.90;31.60
24217;DHT22;12356;49.386;8.688;2023-08-06T02:44:53;17.90;30.80
24217;DHT22;12356;49.386;8.688;2023-08-06T02:47:27;18.00;31.10
24217;DHT22;12356;49.386;8.688;2023-08-06T02:49:57;18.00;31.70
24217;DHT22;12356;49.386;8.688;2023-08-06T02:52:28;18.00;31.60
24217;DHT22;12356;49.386;8.688;2023-08-06T02:54:58;18.00;31.60
24217;DHT22;12356;49.386;8.688;2023-08-06T02:57:30;18.00;31.30
24217;DHT22;12356;49.386;8.688;2023-08-06T03:00:01;17.90;32.00
24217;DHT22;12356;49.386;8.688;2023-08-06T03:02:31;17.90;31.50
24217;DHT22;12356;49.386;8.688;2023-08-06T03:05:02;17.90;31.70
24217;DHT22;12356;49.386;8.688;2023-08-06T03:07:33;17.90;32.60
24217;DHT22;12356;49.386;8.688;2023-08-06T03:10:06;17.90;32.60
24217;DHT22;12356;49.386;8.688;2023-08-06T03:12:37;17.80;33.10
24217;DHT22;12356;49.386;8.688;2023-08-06T03:15:07;17.80;33.40
24217;DHT22;12356;49.386;8.688;2023-08-06T03:17:38;17.80;33.60
24217;DHT22;12356;49.386;8.688;2023-08-06T03:20:09;17.80;33.30
24217;DHT22;12356;49.386;8.688;2023-08-06T03:22:40;17.80;33.30
24217;DHT22;12356;49.386;8.688;2023-08-06T03:25:10;17.80;33.70
24217;DHT22;12356;49.386;8.688;2023-08-06T03:27:41;17.70;33.60
24217;DHT22;12356;49.386;8.688;2023-08-06T03:30:11;17.70;34.60
24217;DHT22;12356;49.386;8.688;2023-08-06T03:32:42;17.70;35.50
24217;DHT22;12356;49.386;8.688;2023-08-06T03:35:13;17.70;35.90
24217;DHT22;12356;49.386;8.688;2023-08-06T03:37:43;17.70;36.60
24217;DHT22;12356;49.386;8.688;2023-08-06T03:40:14;17.70;36.50
24217;DHT22;12356;49.386;8.688;2023-08-06T03:42:44;17.70;36.50
24217;DHT22;12356;49.386;8.688;2023-08-06T03:45:15;17.70;36.70
24217;DHT22;12356;49.386;8.688;2023-08-06T03:47:45;17.60;37.40
24217;DHT22;12356;49.386;8.688;2023-08-06T03:50:16;17.70;37.30
24217;DHT22;12356;49.386;8.688;2023-08-06T03:52:46;17.70;37.50
24217;DHT22;12356;49.386;8.688;2023-08-06T03:55:17;17.70;37.90
24217;DHT22;12356;49.386;8.688;2023-08-06T03:57:47;17.60;37.80
24217;DHT22;12356;49.386;8.688;2023-08-06T04:00:18;17.70;36.40
24217;DHT22;12356;49.386;8.688;2023-08-06T04:02:49;17.60;36.60
24217;DHT22;12356;49.386;8.688;2023-08-06T04:05:20;17.60;36.00
24217;DHT22;12356;49.386;8.688;2023-08-06T04:07:50;17.60;35.90
24217;DHT22;12356;49.386;8.688;2023-08-06T04:10:21;17.50;35.60
24217;DHT22;12356;49.386;8.688;2023-08-06T04:12:52;17.50;35.30
24217;DHT22;12356;49.386;8.688;2023-08-06T04:15:22;17.40;35.80
24217;DHT22;12356;49.386;8.688;2023-08-06T04:17:53;17.40;36.00
24217;DHT22;12356;49.386;8.688;2023-08-06T04:20:23;17.40;35.70
24217;DHT22;12356;49.386;8.688;2023-08-06T04:22:54;17.40;36.20
24217;DHT22;12356;49.386;8.688;2023-08-06T04:25:25;17.30;36.00
24217;DHT22;12356;49.386;8.688;2023-08-06T04:27:56;17.30;36.70
24217;DHT22;12356;49.386;8.688;2023-08-06T04:30:26;17.30;35.90
24217;DHT22;12356;49.386;8.688;2023-08-06T04:32:57;17.30;36.40
24217;DHT22;12356;49.386;8.688;2023-08-06T04:35:28;17.30;36.50
24217;DHT22;12356;49.386;8.688;2023-08-06T04:37:59;17.20;36.10
24217;DHT22;12356;49.386;8.688;2023-08-06T04:40:30;17.20;37.30
24217;DHT22;12356;49.386;8.688;2023-08-06T04:43:00;17.20;36.60
24217;DHT22;12356;49.386;8.688;2023-08-06T04:45:31;17.20;36.40
24217;DHT22;12356;49.386;8.688;2023-08-06T04:48:01;17.20;36.70
24217;DHT22;12356;49.386;8.688;2023-08-06T04:50:32;17.10;36.80
24217;DHT22;12356;49.386;8.688;2023-08-06T04:53:02;17.10;37.00
24217;DHT22;12356;49.386;8.688;2023-08-06T04:55:33;17.10;37.70
24217;DHT22;12356;49.386;8.688;2023-08-06T04:58:04;17.10;37.70
24217;DHT22;12356;49.386;8.688;2023-08-06T05:00:34;17.00;37.60
24217;DHT22;12356;49.386;8.688;2023-08-06T05:03:05;17.00;37.50
24217;DHT22;12356;49.386;8.688;2023-08-06T05:05:36;17.10;37.50
24217;DHT22;12356;49.386;8.688;2023-08-06T05:08:06;17.00;36.60
24217;DHT22;12356;49.386;8.688;2023-08-06T05:10:37;17.00;37.00
24217;DHT22;12356;49.386;8.688;2023-08-06T05:13:07;17.00;36.60
24217;DHT22;12356;49.386;8.688;2023-08-06T05:15:39;17.00;37.10
24217;DHT22;12356;49.386;8.688;2023-08-06T05:18:12;16.90;38.20
24217;DHT22;12356;49.386;8.688;2023-08-06T05:20:43;16.90;39.90
24217;DHT22;12356;49.386;8.688;2023-08-06T05:23:13;16.90;42.40
24217;DHT22;12356;49.386;8.688;2023-08-06T05:25:44;16.90;43.70
24217;DHT22;12356;49.386;8.688;2023-08-06T05:28:15;16.90;45.10
24217;DHT22;12356;49.386;8.688;2023-08-06T05:30:45;16.80;47.80
24217;DHT22;12356;49.386;8.688;2023-08-06T05:33:16;16.70;50.90
24217;DHT22;12356;49.386;8.688;2023-08-06T05:35:46;16.70;51.30
24217;DHT22;12356;49.386;8.688;2023-08-06T05:38:17;16.70;52.30
24217;DHT22;12356;49.386;8.688;2023-08-06T05:40:47;16.60;53.30
24217;DHT22;12356;49.386;8.688;2023-08-06T05:43:19;16.60;53.60
24217;DHT22;12356;49.386;8.688;2023-08-06T05:45:50;16.50;55.10
24217;DHT22;12356;49.386;8.688;2023-08-06T05:48:20;16.50;56.10
24217;DHT22;12356;49.386;8.688;2023-08-06T05:50:52;16.50;57.80
24217;DHT22;12356;49.386;8.688;2023-08-06T05:53:23;16.50;59.30
24217;DHT22;12356;49.386;8.688;2023-08-06T05:55:54;16.40;60.90
24217;DHT22;12356;49.386;8.688;2023-08-06T05:58:24;16.40;60.80
24217;DHT22;12356;49.386;8.688;2023-08-06T06:00:56;16.40;60.90
24217;DHT22;12356;49.386;8.688;2023-08-06T06:03:27;16.40;61.00
24217;DHT22;12356;49.386;8.688;2023-08-06T06:05:59;16.40;62.00
24217;DHT22;12356;49.386;8.688;2023-08-06T06:08:31;16.30;61.00
24217;DHT22;12356;49.386;8.688;2023-08-06T06:11:01;16.30;60.70
24217;DHT22;12356;49.386;8.688;2023-08-06T06:13:32;16.30;60.30
24217;DHT22;12356;49.386;8.688;2023-08-06T06:16:02;16.30;61.00
24217;DHT22;12356;49.386;8.688;2023-08-06T06:18:33;16.20;60.50
24217;DHT22;12356;49.386;8.688;2023-08-06T06:21:04;16.20;61.00
24217;DHT22;12356;49.386;8.688;2023-08-06T06:23:34;16.20;61.10
24217;DHT22;12356;49.386;8.688;2023-08-06T06:26:05;16.20;62.40
24217;DHT22;12356;49.386;8.688;2023-08-06T06:28:35;16.20;62.80
24217;DHT22;12356;49.386;8.688;2023-08-06T06:31:06;16.20;63.80
24217;DHT22;12356;49.386;8.688;2023-08-06T06:33:36;16.20;62.70
24217;DHT22;12356;49.386;8.688;2023-08-06T06:36:07;16.20;63.40
24217;DHT22;12356;49.386;8.688;2023-08-06T06:38:38;16.30;64.10
24217;DHT22;12356;49.386;8.688;2023-08-06T06:41:08;16.30;63.70
24217;DHT22;12356;49.386;8.688;2023-08-06T06:43:39;16.30;63.40
24217;DHT22;12356;49.386;8.688;2023-08-06T06:46:10;16.30;64.00
24217;DHT22;12356;49.386;8.688;2023-08-06T06:48:41;16.30;63.40
24217;DHT22;12356;49.386;8.688;2023-08-06T06:51:12;16.30;63.60
24217;DHT22;12356;49.386;8.688;2023-08-06T06:53:42;16.30;65.10
24217;DHT22;12356;49.386;8.688;2023-08-06T06:56:13;16.30;65.20
24217;DHT22;12356;49.386;8.688;2023-08-06T06:58:43;16.30;65.30
24217;DHT22;12356;49.386;8.688;2023-08-06T07:01:14;16.30;65.00
24217;DHT22;12356;49.386;8.688;2023-08-06T07:03:45;16.30;64.50
24217;DHT22;12356;49.386;8.688;2023-08-06T07:06:15;16.40;65.40
24217;DHT22;12356;49.386;8.688;2023-08-06T07:08:46;16.30;64.90
24217;DHT22;12356;49.386;8.688;2023-08-06T07:11:16;16.40;64.30
24217;DHT22;12356;49.386;8.688;2023-08-06T07:13:47;16.40;64.40
24217;DHT22;12356;49.386;8.688;2023-08-06T07:16:17;16.40;65.90
24217;DHT22;12356;49.386;8.688;2023-08-06T07:18:48;16.40;65.20
24217;DHT22;12356;49.386;8.688;2023-08-06T07:21:19;16.40;64.30
24217;DHT22;12356;49.386;8.688;2023-08-06T07:23:49;16.30;63.70
24217;DHT22;12356;49.386;8.688;2023-08-06T07:26:20;16.40;64.60
24217;DHT22;12356;49.386;8.688;2023-08-06T07:28:50;16.50;64.70
24217;DHT22;12356;49.386;8.688;2023-08-06T07:31:21;16.40;64.30
24217;DHT22;12356;49.386;8.688;2023-08-06T07:33:51;16.50;64.80
24217;DHT22;12356;49.386;8.688;2023-08-06T07:36:22;16.50;65.60
24217;DHT22;12356;49.386;8.688;2023-08-06T07:38:52;16.50;65.20
24217;DHT22;12356;49.386;8.688;2023-08-06T07:41:26;16.50;64.40
24217;DHT22;12356;49.386;8.688;2023-08-06T07:43:56;16.50;64.50
24217;DHT22;12356;49.386;8.688;2023-08-06T07:46:27;16.60;65.10
24217;DHT22;12356;49.386;8.688;2023-08-06T07:48:57;16.50;64.20
24217;DHT22;12356;49.386;8.688;2023-08-06T07:51:28;16.50;63.30
24217;DHT22;12356;49.386;8.688;2023-08-06T07:53:58;16.50;62.70
24217;DHT22;12356;49.386;8.688;2023-08-06T07:56:29;16.50;63.40
24217;DHT22;12356;49.386;8.688;2023-08-06T07:58:59;16.60;63.40
24217;DHT22;12356;49.386;8.688;2023-08-06T08:01:30;16.50;63.20
24217;DHT22;12356;49.386;8.688;2023-08-06T08:04:01;16.60;62.70
24217;DHT22;12356;49.386;8.688;2023-08-06T08:06:33;16.50;62.60
24217;DHT22;12356;49.386;8.688;2023-08-06T08:09:03;16.50;62.70
24217;DHT22;12356;49.386;8.688;2023-08-06T08:11:34;16.50;65.00
24217;DHT22;12356;49.386;8.688;2023-08-06T08:14:05;16.50;64.00
24217;DHT22;12356;49.386;8.688;2023-08-06T08:16:35;16.50;63.80
24217;DHT22;12356;49.386;8.688;2023-08-06T08:19:06;16.50;63.70
24217;DHT22;12356;49.386;8.688;2023-08-06T08:21:36;16.60;65.60
24217;DHT22;12356;49.386;8.688;2023-08-06T08:24:07;16.60;65.80
24217;DHT22;12356;49.386;8.688;2023-08-06T08:26:38;16.60;65.00
24217;DHT22;12356;49.386;8.688;2023-08-06T08:29:08;16.60;65.00
24217;DHT22;12356;49.386;8.688;2023-08-06T08:31:39;16.60;65.00
24217;DHT22;12356;49.386;8.688;2023-08-06T08:34:09;16.70;64.40
24217;DHT22;12356;49.386;8.688;2023-08-06T08:36:40;16.70;64.20
24217;DHT22;12356;49.386;8.688;2023-08-06T08:39:10;16.70;64.10
24217;DHT22;12356;49.386;8.688;2023-08-06T08:41:42;16.70;65.80
24217;DHT22;12356;49.386;8.688;2023-08-06T08:44:13;16.70;66.60
24217;DHT22;12356;49.386;8.688;2023-08-06T08:46:47;16.70;68.80
24217;DHT22;12356;49.386;8.688;2023-08-06T08:49:18;16.70;69.70
24217;DHT22;12356;49.386;8.688;2023-08-06T08:51:51;16.80;70.70
24217;DHT22;12356;49.386;8.688;2023-08-06T08:54:23;16.70;70.10
24217;DHT22;12356;49.386;8.688;2023-08-06T08:56:54;16.70;70.60
24217;DHT22;12356;49.386;8.688;2023-08-06T08:59:27;16.80;71.20
24217;DHT22;12356;49.386;8.688;2023-08-06T09:02:00;16.80;70.80
24217;DHT22;12356;49.386;8.688;2023-08-06T09:04:31;16.80;71.30
24217;DHT22;12356;49.386;8.688;2023-08-06T09:07:04;16.80;71.20
24217;DHT22;12356;49.386;8.688;2023-08-06T09:09:35;16.80;71.50
24217;DHT22;12356;49.386;8.688;2023-08-06T09:12:14;16.90;71.70
24217;DHT22;12356;49.386;8.688;2023-08-06T09:14:44;16.90;71.20
24217;DHT22;12356;49.386;8.688;2023-08-06T09:17:15;17.00;69.50
24217;DHT22;12356;49.386;8.688;2023-08-06T09:19:49;17.00;68.10
24217;DHT22;12356;49.386;8.688;2023-08-06T09:22:20;17.00;68.50
24217;DHT22;12356;49.386;8.688;2023-08-06T09:24:51;17.00;65.20
24217;DHT22;12356;49.386;8.688;2023-08-06T09:27:22;17.00;66.90
24217;DHT22;12356;49.386;8.688;2023-08-06T09:29:53;16.90;66.80
24217;DHT22;12356;49.386;8.688;2023-08-06T09:32:24;16.90;66.90
24217;DHT22;12356;49.386;8.688;2023-08-06T09:34:57;17.00;68.10
24217;DHT22;12356;49.386;8.688;2023-08-06T09:37:35;17.00;69.10
24217;DHT22;12356;49.386;8.688;2023-08-06T09:40:24;17.10;68.20
24217;DHT22;12356;49.386;8.688;2023-08-06T09:42:56;17.20;68.40
24217;DHT22;12356;49.386;8.688;2023-08-06T09:45:32;17.20;66.60
24217;DHT22;12356;49.386;8.688;2023-08-06T09:48:05;17.20;66.50
24217;DHT22;12356;49.386;8.688;2023-08-06T09:50:37;17.20;63.40
24217;DHT22;12356;49.386;8.688;2023-08-06T09:53:08;17.30;63.70
24217;DHT22;12356;49.386;8.688;2023-08-06T09:55:39;17.30;64.70
24217;DHT22;12356;49.386;8.688;2023-08-06T09:58:10;17.30;62.40
24217;DHT22;12356;49.386;8.688;2023-08-06T10:00:41;17.30;63.40
24217;DHT22;12356;49.386;8.688;2023-08-06T10:03:12;17.20;64.90
24217;DHT22;12356;49.386;8.688;2023-08-06T10:05:44;17.30;67.40
24217;DHT22;12356;49.386;8.688;2023-08-06T10:08:15;17.20;69.30
24217;DHT22;12356;49.386;8.688;2023-08-06T10:10:46;17.20;71.00
24217;DHT22;12356;49.386;8.688;2023-08-06T10:13:17;17.10;72.40
24217;DHT22;12356;49.386;8.688;2023-08-06T10:15:50;17.10;73.60
24217;DHT22;12356;49.386;8.688;2023-08-06T10:18:22;17.00;72.50
24217;DHT22;12356;49.386;8.688;2023-08-06T10:20:53;17.00;72.30
24217;DHT22;12356;49.386;8.688;2023-08-06T10:23:33;17.00;72.30
24217;DHT22;12356;49.386;8.688;2023-08-06T10:26:04;17.00;71.70
24217;DHT22;12356;49.386;8.688;2023-08-06T10:28:38;16.90;71.20
24217;DHT22;12356;49.386;8.688;2023-08-06T10:31:09;16.90;70.80
24217;DHT22;12356;49.386;8.688;2023-08-06T10:33:47;16.90;70.80
24217;DHT22;12356;49.386;8.688;2023-08-06T10:36:18;16.90;70.80
24217;DHT22;12356;49.386;8.688;2023-08-06T10:38:49;16.90;70.30
24217;DHT22;12356;49.386;8.688;2023-08-06T10:41:27;16.90;68.30
24217;DHT22;12356;49.386;8.688;2023-08-06T10:44:09;16.80;70.10
24217;DHT22;12356;49.386;8.688;2023-08-06T10:46:40;16.80;70.30
24217;DHT22;12356;49.386;8.688;2023-08-06T10:49:11;16.80;70.90
24217;DHT22;12356;49.386;8.688;2023-08-06T10:51:43;16.70;70.50
24217;DHT22;12356;49.386;8.688;2023-08-06T10:54:14;16.70;70.70
24217;DHT22;12356;49.386;8.688;2023-08-06T10:56:45;16.60;70.20
24217;DHT22;12356;49.386;8.688;2023-08-06T10:59:18;16.60;70.50
24217;DHT22;12356;49.386;8.688;2023-08-06T11:01:48;16.50;71.50
24217;DHT22;12356;49.386;8.688;2023-08-06T11:04:20;16.50;71.00
24217;DHT22;12356;49.386;8.688;2023-08-06T11:06:54;16.40;71.40
24217;DHT22;12356;49.386;8.688;2023-08-06T11:09:25;16.50;70.50
24217;DHT22;12356;49.386;8.688;2023-08-06T11:11:56;16.40;67.00
24217;DHT22;12356;49.386;8.688;2023-08-06T11:14:27;16.40;65.50
24217;DHT22;12356;49.386;8.688;2023-08-06T11:16:58;16.40;68.60
24217;DHT22;12356;49.386;8.688;2023-08-06T11:19:28;16.40;68.60
24217;DHT22;12356;49.386;8.688;2023-08-06T11:22:00;16.30;68.10
24217;DHT22;12356;49.386;8.688;2023-08-06T11:24:31;16.30;70.80
24217;DHT22;12356;49.386;8.688;2023-08-06T11:27:02;16.30;71.40
24217;DHT22;12356;49.386;8.688;2023-08-06T11:29:37;16.30;70.30
24217;DHT22;12356;49.386;8.688;2023-08-06T11:32:08;16.30;69.90
24217;DHT22;12356;49.386;8.688;2023-08-06T11:34:39;16.30;68.60
24217;DHT22;12356;49.386;8.688;2023-08-06T11:37:11;16.40;69.70
24217;DHT22;12356;49.386;8.688;2023-08-06T11:39:46;16.30;69.50
24217;DHT22;12356;49.386;8.688;2023-08-06T11:42:18;16.30;71.20
24217;DHT22;12356;49.386;8.688;2023-08-06T11:44:49;16.40;71.10
24217;DHT22;12356;49.386;8.688;2023-08-06T11:47:20;16.40;69.10
24217;DHT22;12356;49.386;8.688;2023-08-06T11:49:50;16.40;68.10
24217;DHT22;12356;49.386;8.688;2023-08-06T11:52:25;16.40;65.90
24217;DHT22;12356;49.386;8.688;2023-08-06T11:55:04;16.40;66.80
24217;DHT22;12356;49.386;8.688;2023-08-06T11:57:38;16.40;68.20
24217;DHT22;12356;49.386;8.688;2023-08-06T12:00:11;16.40;66.00
24217;DHT22;12356;49.386;8.688;2023-08-06T12:02:43;16.40;67.10
24217;DHT22;12356;49.386;8.688;2023-08-06T12:05:15;16.40;68.80
24217;DHT22;12356;49.386;8.688;2023-08-06T12:07:51;16.40;66.10
24217;DHT22;12356;49.386;8.688;2023-08-06T12:10:24;16.30;64.00
24217;DHT22;12356;49.386;8.688;2023-08-06T12:12:55;16.30;62.20
24217;DHT22;12356;49.386;8.688;2023-08-06T12:15:25;16.40;62.10
24217;DHT22;12356;49.386;8.688;2023-08-06T12:17:56;16.40;65.20
24217;DHT22;12356;49.386;8.688;2023-08-06T12:20:26;16.40;64.80
24217;DHT22;12356;49.386;8.688;2023-08-06T12:22:58;16.40;53.20
24217;DHT22;12356;49.386;8.688;2023-08-06T12:25:29;16.40;56.40
24217;DHT22;12356;49.386;8.688;2023-08-06T12:27:59;16.40;57.20
24217;DHT22;12356;49.386;8.688;2023-08-06T12:30:30;16.40;57.60
24217;DHT22;12356;49.386;8.688;2023-08-06T12:33:01;16.40;53.20
24217;DHT22;12356;49.386;8.688;2023-08-06T12:35:31;16.40;54.80
24217;DHT22;12356;49.386;8.688;2023-08-06T12:38:02;16.50;54.30
24217;DHT22;12356;49.386;8.688;2023-08-06T12:40:32;16.50;58.00
24217;DHT22;12356;49.386;8.688;2023-08-06T12:43:03;16.50;54.90
24217;DHT22;12356;49.386;8.688;2023-08-06T12:45:33;16.50;52.80
24217;DHT22;12356;49.386;8.688;2023-08-06T12:48:04;16.50;54.40
24217;DHT22;12356;49.386;8.688;2023-08-06T12:50:35;16.50;54.80
24217;DHT22;12356;49.386;8.688;2023-08-06T12:53:06;16.50;59.60
24217;DHT22;12356;49.386;8.688;2023-08-06T12:55:36;16.60;59.60
24217;DHT22;12356;49.386;8.688;2023-08-06T12:58:07;16.60;59.30
24217;DHT22;12356;49.386;8.688;2023-08-06T13:00:38;16.60;53.00
24217;DHT22;12356;49.386;8.688;2023-08-06T13:03:09;16.60;55.30
24217;DHT22;12356;49.386;8.688;2023-08-06T13:05:39;16.60;55.10
24217;DHT22;12356;49.386;8.688;2023-08-06T13:08:10;16.60;54.70
24217;DHT22;12356;49.386;8.688;2023-08-06T13:10:40;16.60;52.80
24217;DHT22;12356;49.386;8.688;2023-08-06T13:13:11;16.70;53.80
24217;DHT22;12356;49.386;8.688;2023-08-06T13:15:42;16.60;53.30
24217;DHT22;12356;49.386;8.688;2023-08-06T13:18:12;16.70;54.20
24217;DHT22;12356;49.386;8.688;2023-08-06T13:20:43;16.60;47.10
24217;DHT22;12356;49.386;8.688;2023-08-06T13:23:13;16.70;45.10
24217;DHT22;12356;49.386;8.688;2023-08-06T13:25:46;16.70;49.40
24217;DHT22;12356;49.386;8.688;2023-08-06T13:28:17;16.70;47.00
24217;DHT22;12356;49.386;8.688;2023-08-06T13:30:47;16.70;47.50
24217;DHT22;12356;49.386;8.688;2023-08-06T13:33:18;16.70;53.20
24217;DHT22;12356;49.386;8.688;2023-08-06T13:35:48;16.70;51.20
24217;DHT22;12356;49.386;8.688;2023-08-06T13:38:21;16.70;51.80
24217;DHT22;12356;49.386;8.688;2023-08-06T13:40:51;16.70;51.50
24217;DHT22;12356;49.386;8.688;2023-08-06T13:43:22;16.80;54.10
24217;DHT22;12356;49.386;8.688;2023-08-06T13:45:52;16.80;48.80
24217;DHT22;12356;49.386;8.688;2023-08-06T13:48:23;16.80;46.40
24217;DHT22;12356;49.386;8.688;2023-08-06T13:50:53;16.80;53.60
24217;DHT22;12356;49.386;8.688;2023-08-06T13:53:24;16.80;53.70
24217;DHT22;12356;49.386;8.688;2023-08-06T13:56:00;16.80;48.20
24217;DHT22;12356;49.386;8.688;2023-08-06T13:58:30;16.70;47.60
24217;DHT22;12356;49.386;8.688;2023-08-06T14:01:01;16.70;49.70
24217;DHT22;12356;49.386;8.688;2023-08-06T14:03:32;16.70;50.70
24217;DHT22;12356;49.386;8.688;2023-08-06T14:06:02;16.80;55.60
24217;DHT22;12356;49.386;8.688;2023-08-06T14:08:33;16.80;55.40
24217;DHT22;12356;49.386;8.688;2023-08-06T14:11:05;16.80;58.60
24217;DHT22;12356;49.386;8.688;2023-08-06T14:13:36;16.80;59.80
24217;DHT22;12356;49.386;8.688;2023-08-06T14:16:07;16.80;61.30
24217;DHT22;12356;49.386;8.688;2023-08-06T14:18:38;16.80;60.10
24217;DHT22;12356;49.386;8.688;2023-08-06T14:21:09;16.90;59.90
24217;DHT22;12356;49.386;8.688;2023-08-06T14:23:40;16.80;59.50
24217;DHT22;12356;49.386;8.688;2023-08-06T14:26:13;16.90;60.50
24217;DHT22;12356;49.386;8.688;2023-08-06T14:28:45;16.90;62.30
24217;DHT22;12356;49.386;8.688;2023-08-06T14:31:16;16.90;63.40
24217;DHT22;12356;49.386;8.688;2023-08-06T14:33:47;16.90;63.00
24217;DHT22;12356;49.386;8.688;2023-08-06T14:36:18;16.90;63.30
24217;DHT22;12356;49.386;8.688;2023-08-06T14:38:49;16.90;64.30
24217;DHT22;12356;49.386;8.688;2023-08-06T14:41:19;16.90;64.00
24217;DHT22;12356;49.386;8.688;2023-08-06T14:43:50;16.90;64.60
24217;DHT22;12356;49.386;8.688;2023-08-06T14:46:21;16.90;65.10
24217;DHT22;12356;49.386;8.688;2023-08-06T14:48:51;16.90;66.20
24217;DHT22;12356;49.386;8.688;2023-08-06T14:51:22;16.90;66.60
24217;DHT22;12356;49.386;8.688;2023-08-06T14:53:53;16.90;67.50
24217;DHT22;12356;49.386;8.688;2023-08-06T14:56:24;16.90;67.10
24217;DHT22;12356;49.386;8.688;2023-08-06T14:58:54;16.80;67.00
24217;DHT22;12356;49.386;8.688;2023-08-06T15:01:25;16.80;67.80
24217;DHT22;12356;49.386;8.688;2023-08-06T15:03:55;16.80;68.50
24217;DHT22;12356;49.386;8.688;2023-08-06T15:06:26;16.80;68.70
24217;DHT22;12356;49.386;8.688;2023-08-06T15:08:56;16.70;68.90
24217;DHT22;12356;49.386;8.688;2023-08-06T15:11:31;16.80;69.90
24217;DHT22;12356;49.386;8.688;2023-08-06T15:14:01;16.80;70.30
24217;DHT22;12356;49.386;8.688;2023-08-06T15:16:34;16.80;70.10
24217;DHT22;12356;49.386;8.688;2023-08-06T15:19:04;16.80;70.90
24217;DHT22;12356;49.386;8.688;2023-08-06T15:21:35;16.80;72.60
24217;DHT22;12356;49.386;8.688;2023-08-06T15:24:05;16.80;71.30
24217;DHT22;12356;49.386;8.688;2023-08-06T15:26:36;16.80;71.80
24217;DHT22;12356;49.386;8.688;2023-08-06T15:29:07;16.70;70.70
24217;DHT22;12356;49.386;8.688;2023-08-06T15:31:38;16.60;70.50
24217;DHT22;12356;49.386;8.688;2023-08-06T15:34:09;16.60;70.60
24217;DHT22;12356;49.386;8.688;2023-08-06T15:36:40;16.50;71.10
24217;DHT22;12356;49.386;8.688;2023-08-06T15:39:10;16.40;71.80
24217;DHT22;12356;49.386;8.688;2023-08-06T15:41:41;16.40;72.50
24217;DHT22;12356;49.386;8.688;2023-08-06T15:44:12;16.40;73.00
24217;DHT22;12356;49.386;8.688;2023-08-06T15:46:43;16.40;73.30
24217;DHT22;12356;49.386;8.688;2023-08-06T15:49:13;16.50;72.80
24217;DHT22;12356;49.386;8.688;2023-08-06T15:51:44;16.50;73.40
24217;DHT22;12356;49.386;8.688;2023-08-06T15:54:14;16.40;73.50
24217;DHT22;12356;49.386;8.688;2023-08-06T15:56:45;16.40;73.40